Time;durP1;ratioP1;P1;durP2;ratioP2;P2;SDS_P1;SDS_P2;PMS_P1;PMS_P2;Temp;Humidity;BMP_temperature;BMP_pressure;BME280_temperature;BME280_humidity;BME280_pressure;Samples;Min_cycle;Max_cycle;Signal;HPM_P1;HPM_P2
2022/01/19 00:01:28;;;;;;;7.35;4.13;;;19.30;47.60;;;;;;5066480;28;20035;-61
2022/01/19 00:03:55;;;;;;;6.28;4.18;;;19.30;47.70;;;;;;5069895;28;20028;-61
2022/01/19 00:06:22;;;;;;;5.90;3.90;;;19.30;47.70;;;;;;5073840;28;20062;-61
2022/01/19 00:08:48;;;;;;;6.30;4.13;;;19.30;47.70;;;;;;5074830;28;20025;-60
2022/01/19 00:11:14;;;;;;;5.75;3.55;;;19.30;47.70;;;;;;5066026;28;20036;-61
2022/01/19 00:13:40;;;;;;;5.35;3.92;;;19.20;47.60;;;;;;5074265;28;20032;-61
2022/01/19 00:16:06;;;;;;;6.95;4.10;;;19.20;47.60;;;;;;5067271;28;20072;-61
2022/01/19 00:18:31;;;;;;;5.57;3.75;;;19.20;47.70;;;;;;5065823;28;20056;-61
2022/01/19 00:20:57;;;;;;;5.90;4.03;;;19.20;47.70;;;;;;5069332;28;20048;-61
2022/01/19 00:23:23;;;;;;;6.03;3.97;;;19.20;47.60;;;;;;5075777;28;20029;-61
2022/01/19 00:25:51;;;;;;;5.80;3.72;;;19.20;47.60;;;;;;5067302;28;20594;-61
2022/01/19 00:28:18;;;;;;;4.10;3.53;;;19.20;47.50;;;;;;5062544;28;20026;-61
2022/01/19 00:30:44;;;;;;;4.68;3.75;;;19.10;47.40;;;;;;5067338;28;20044;-61
2022/01/19 00:33:10;;;;;;;6.68;4.07;;;19.10;47.30;;;;;;5065709;28;20472;-61
2022/01/19 00:35:36;;;;;;;7.53;4.10;;;19.10;47.30;;;;;;5067283;28;20035;-61
2022/01/19 00:38:05;;;;;;;6.93;4.03;;;19.10;47.20;;;;;;5075036;28;20048;-61
2022/01/19 00:40:31;;;;;;;6.30;3.72;;;19.10;47.20;;;;;;5049121;28;20037;-62
2022/01/19 00:42:57;;;;;;;6.03;3.92;;;19.00;47.10;;;;;;5073404;28;20020;-63
2022/01/19 00:45:23;;;;;;;5.90;4.55;;;19.00;47.20;;;;;;5073295;28;20036;-63
2022/01/19 00:47:50;;;;;;;5.20;3.83;;;19.00;47.20;;;;;;5075092;28;20020;-63
2022/01/19 00:50:22;;;;;;;7.10;4.28;;;19.00;47.10;;;;;;5070528;28;20021;-63
2022/01/19 00:52:50;;;;;;;6.28;3.85;;;19.00;47.10;;;;;;5058424;28;20048;-63
2022/01/19 00:55:17;;;;;;;5.70;3.58;;;18.90;47.00;;;;;;5074981;28;20024;-63
2022/01/19 00:57:43;;;;;;;6.43;3.90;;;18.90;47.00;;;;;;5067403;28;20024;-63
2022/01/19 01:00:12;;;;;;;6.07;4.25;;;18.90;46.90;;;;;;5068381;28;20036;-63
2022/01/19 01:02:38;;;;;;;5.70;3.55;;;18.90;46.90;;;;;;5064236;28;20023;-61
2022/01/19 01:05:05;;;;;;;5.68;3.50;;;18.80;46.90;;;;;;5055270;28;20025;-62
2022/01/19 01:07:33;;;;;;;4.63;3.60;;;18.80;46.90;;;;;;5074876;28;20476;-63
2022/01/19 01:09:59;;;;;;;5.55;3.60;;;18.80;46.80;;;;;;5074721;28;20036;-63
2022/01/19 01:12:41;;;;;;;7.07;4.00;;;18.80;46.80;;;;;;5067078;28;20487;-63
2022/01/19 01:15:29;;;;;;;6.50;4.15;;;18.80;46.80;;;;;;5061731;28;20033;-63
2022/01/19 01:20:30;;;;;;;5.75;4.10;;;18.70;46.80;;;;;;5069968;28;20116;-61
2022/01/19 01:22:55;;;;;;;6.95;3.90;;;18.70;46.80;;;;;;5055348;28;20067;-61
2022/01/19 01:25:21;;;;;;;6.72;4.30;;;18.70;46.70;;;;;;5060163;28;20423;-61
2022/01/19 01:27:47;;;;;;;7.43;3.97;;;18.70;46.80;;;;;;5057316;28;20047;-61
2022/01/19 01:30:13;;;;;;;5.65;3.95;;;18.60;46.70;;;;;;5056050;28;20035;-61
2022/01/19 01:32:38;;;;;;;5.35;3.55;;;18.60;47.20;;;;;;5073802;28;20039;-61
2022/01/19 01:35:05;;;;;;;6.07;3.58;;;18.60;46.70;;;;;;5068364;28;20029;-61
2022/01/19 01:37:30;;;;;;;6.15;3.80;;;18.60;46.60;;;;;;5055079;28;20111;-62
2022/01/19 01:39:56;;;;;;;5.40;3.80;;;18.60;46.70;;;;;;5071391;28;20468;-63
2022/01/19 01:42:23;;;;;;;6.45;3.97;;;18.60;46.60;;;;;;5074905;28;20440;-63
2022/01/19 01:44:51;;;;;;;5.32;3.78;;;18.60;46.60;;;;;;5061274;28;20480;-63
2022/01/19 01:47:19;;;;;;;5.45;4.03;;;18.50;46.50;;;;;;5066940;28;20028;-63
2022/01/19 01:54:56;;;;;;;5.32;3.88;;;18.50;46.50;;;;;;5073673;28;20039;-61
2022/01/19 01:57:21;;;;;;;6.38;3.80;;;18.50;46.50;;;;;;5074135;28;20029;-61
2022/01/19 01:59:47;;;;;;;5.47;3.90;;;18.50;46.50;;;;;;5073583;28;20028;-61
2022/01/19 02:02:14;;;;;;;6.97;4.32;;;18.50;46.50;;;;;;5067692;28;20033;-61
2022/01/19 02:04:41;;;;;;;5.75;4.05;;;18.40;46.40;;;;;;5072685;28;20464;-61
2022/01/19 02:07:42;;;;;;;9.57;4.63;;;18.40;46.40;;;;;;5059917;28;20050;-61
2022/01/19 02:10:05;;;;;;;5.43;3.85;;;18.40;46.40;;;;;;5059654;28;20032;-62
2022/01/19 02:23:35;;;;;;;5.85;3.85;;;18.30;46.40;;;;;;5074107;28;20035;-61
2022/01/19 02:26:06;;;;;;;5.15;4.10;;;18.20;46.40;;;;;;5073183;28;20024;-61
2022/01/19 02:42:16;;;;;;;4.80;3.50;;;18.20;46.40;;;;;;5064202;28;20040;-64
2022/01/19 02:49:53;;;;;;;5.55;3.63;;;18.10;46.30;;;;;;5068499;28;20071;-62
2022/01/19 02:52:21;;;;;;;5.95;3.40;;;18.10;46.30;;;;;;5070924;28;20036;-61
2022/01/19 02:54:47;;;;;;;5.55;4.00;;;18.10;46.30;;;;;;5059711;28;20032;-62
2022/01/19 02:57:14;;;;;;;5.32;3.63;;;18.10;46.30;;;;;;5066181;28;20025;-62
2022/01/19 03:10:33;;;;;;;5.82;3.72;;;18.00;46.30;;;;;;5058310;28;20102;-64
2022/01/19 03:12:59;;;;;;;4.97;3.65;;;18.00;46.30;;;;;;5073347;28;20036;-64
2022/01/19 03:15:26;;;;;;;5.78;3.80;;;18.00;46.30;;;;;;5070012;28;20032;-64
2022/01/19 03:17:56;;;;;;;5.72;4.00;;;18.00;46.30;;;;;;5071835;28;20036;-64
2022/01/19 03:20:22;;;;;;;5.45;3.70;;;18.00;46.30;;;;;;5072095;28;20124;-64
2022/01/19 03:23:04;;;;;;;6.18;3.85;;;18.00;46.30;;;;;;5071898;28;20108;-64
2022/01/19 03:25:30;;;;;;;6.20;4.13;;;18.00;46.30;;;;;;5067457;28;20061;-64
2022/01/19 03:27:56;;;;;;;5.97;3.88;;;17.90;46.20;;;;;;5053096;28;20047;-64
2022/01/19 03:30:22;;;;;;;4.90;3.70;;;17.90;46.20;;;;;;5064444;28;20456;-64
2022/01/19 03:32:48;;;;;;;5.90;3.85;;;17.90;46.30;;;;;;5072297;28;20074;-64
2022/01/19 03:35:15;;;;;;;6.40;3.85;;;17.90;46.30;;;;;;5075967;28;20499;-64
2022/01/19 03:37:41;;;;;;;5.63;3.83;;;17.80;46.20;;;;;;5075180;28;20044;-64
2022/01/19 03:40:08;;;;;;;5.28;3.97;;;17.80;46.20;;;;;;5062522;28;20031;-62
2022/01/19 03:42:34;;;;;;;5.50;3.35;;;17.90;46.30;;;;;;5046152;28;20040;-62
2022/01/19 03:45:00;;;;;;;5.45;3.72;;;17.80;46.20;;;;;;5065370;28;20036;-62
2022/01/19 03:47:31;;;;;;;5.47;3.70;;;17.80;46.20;;;;;;5077452;28;20020;-62
2022/01/19 03:49:57;;;;;;;6.00;3.73;;;17.80;46.20;;;;;;5071877;28;20052;-62
2022/01/19 03:52:23;;;;;;;5.45;3.90;;;17.80;46.20;;;;;;5073635;28;20286;-63
2022/01/19 03:54:49;;;;;;;5.18;3.53;;;17.80;46.20;;;;;;5074989;28;20373;-64
2022/01/19 03:57:15;;;;;;;5.25;3.70;;;17.80;46.20;;;;;;5076111;28;20045;-64
2022/01/19 03:59:41;;;;;;;5.13;3.50;;;17.70;46.20;;;;;;5075805;28;20442;-64
2022/01/19 04:02:07;;;;;;;4.22;3.63;;;17.70;46.10;;;;;;5072763;28;20100;-64
2022/01/19 04:04:48;;;;;;;5.22;3.53;;;17.70;46.20;;;;;;5073420;28;20017;-64
2022/01/19 04:07:15;;;;;;;4.97;3.63;;;17.70;46.10;;;;;;5075770;28;20028;-64
2022/01/19 04:09:45;;;;;;;5.90;3.90;;;17.70;46.20;;;;;;5072567;28;20028;-64
2022/01/19 04:12:17;;;;;;;5.63;3.50;;;17.70;46.10;;;;;;5074312;28;20036;-64
2022/01/19 04:14:43;;;;;;;4.80;3.78;;;17.60;46.20;;;;;;5075682;28;20032;-64
2022/01/19 04:17:13;;;;;;;5.38;3.63;;;17.60;46.20;;;;;;5062236;28;20028;-64
2022/01/19 04:22:18;;;;;;;4.45;3.42;;;17.60;46.10;;;;;;5067722;28;20033;-64
2022/01/19 04:24:45;;;;;;;5.10;3.70;;;17.60;46.20;;;;;;5057986;28;20024;-64
2022/01/19 04:29:47;;;;;;;5.63;3.33;;;17.60;46.20;;;;;;5075401;28;20541;-64
2022/01/19 04:32:17;;;;;;;5.32;3.60;;;17.50;46.10;;;;;;5075312;28;20064;-64
2022/01/19 04:34:45;;;;;;;5.05;3.67;;;17.50;46.10;;;;;;5075199;28;20097;-64
2022/01/19 05:04:24;;;;;;;5.95;3.58;;;17.40;46.30;;;;;;5062250;28;20535;-64
2022/01/19 05:07:02;;;;;;;5.57;3.63;;;17.30;46.30;;;;;;5073865;28;20487;-64
2022/01/19 05:14:43;;;;;;;4.47;3.13;;;17.30;46.30;;;;;;5064126;28;20087;-62
2022/01/19 05:17:09;;;;;;;4.65;3.58;;;17.30;46.30;;;;;;5068342;28;20037;-62
2022/01/19 05:19:35;;;;;;;5.00;3.65;;;17.30;46.30;;;;;;5062529;28;20040;-62
2022/01/19 05:22:00;;;;;;;4.97;3.50;;;17.30;46.20;;;;;;5069384;28;20522;-62
2022/01/19 05:24:26;;;;;;;5.30;3.45;;;17.30;46.20;;;;;;5057005;28;20477;-62
2022/01/19 05:26:52;;;;;;;5.43;3.33;;;17.30;46.20;;;;;;5066008;28;20068;-63
2022/01/19 05:29:18;;;;;;;5.03;3.50;;;17.30;46.20;;;;;;5048798;28;20020;-64
2022/01/19 05:31:43;;;;;;;5.25;3.78;;;17.30;46.10;;;;;;5074131;28;20032;-64
2022/01/19 05:34:09;;;;;;;6.78;4.10;;;17.30;46.10;;;;;;5063851;28;20057;-64
2022/01/19 05:36:35;;;;;;;5.70;3.70;;;17.20;46.10;;;;;;5069667;28;20090;-62
2022/01/19 05:39:05;;;;;;;5.13;3.47;;;17.30;46.20;;;;;;5054674;28;20057;-62
2022/01/19 05:41:31;;;;;;;4.93;3.53;;;17.20;46.10;;;;;;5062144;28;20025;-62
2022/01/19 05:43:57;;;;;;;5.82;3.60;;;17.20;46.10;;;;;;5059428;28;20024;-62
2022/01/19 05:46:22;;;;;;;5.57;3.22;;;17.20;46.10;;;;;;5063893;28;20031;-62
2022/01/19 05:48:48;;;;;;;6.03;4.10;;;17.20;46.00;;;;;;5073911;28;20044;-62
2022/01/19 05:51:14;;;;;;;5.63;3.45;;;17.20;47.00;;;;;;5074229;28;20056;-62
2022/01/19 05:53:40;;;;;;;5.32;3.50;;;17.20;46.00;;;;;;5062770;28;20032;-63
2022/01/19 05:56:06;;;;;;;5.53;4.00;;;17.20;46.10;;;;;;5071231;28;20021;-64
2022/01/19 05:58:32;;;;;;;6.15;3.95;;;17.20;46.00;;;;;;5071462;28;20032;-64
2022/01/19 06:00:58;;;;;;;5.00;3.45;;;17.20;46.00;;;;;;5071803;28;20040;-64
2022/01/19 06:03:23;;;;;;;4.90;3.28;;;17.20;46.00;;;;;;5073764;28;20046;-64
2022/01/19 06:05:49;;;;;;;6.05;4.28;;;17.20;46.00;;;;;;5060780;28;20025;-64
2022/01/19 06:08:38;;;;;;;4.82;3.72;;;17.20;46.10;;;;;;5074519;28;20444;-64
2022/01/19 06:11:03;;;;;;;4.57;3.28;;;17.20;46.00;;;;;;5062703;28;20032;-64
2022/01/19 06:13:29;;;;;;;5.28;3.78;;;17.10;45.90;;;;;;5073080;28;20032;-64
2022/01/19 06:15:54;;;;;;;6.82;3.80;;;17.20;46.00;;;;;;5073501;28;20422;-64
2022/01/19 06:18:21;;;;;;;5.13;3.78;;;17.10;45.90;;;;;;5066937;28;20056;-64
2022/01/19 06:20:47;;;;;;;5.25;3.70;;;17.10;45.90;;;;;;5073022;28;20480;-64
2022/01/19 06:23:13;;;;;;;6.25;3.97;;;17.10;45.90;;;;;;5074055;28;20106;-64
2022/01/19 06:25:38;;;;;;;6.28;4.22;;;17.10;45.90;;;;;;5073231;28;20044;-64
2022/01/19 06:28:04;;;;;;;5.25;3.60;;;17.10;45.90;;;;;;5062345;28;20038;-64
2022/01/19 06:30:30;;;;;;;6.32;4.15;;;17.10;45.80;;;;;;5059320;28;20032;-64
2022/01/19 06:32:56;;;;;;;5.95;4.15;;;17.10;45.80;;;;;;5073848;28;20098;-64
2022/01/19 06:35:22;;;;;;;6.45;4.13;;;17.10;45.80;;;;;;5065111;28;20037;-64
2022/01/19 06:37:48;;;;;;;6.30;4.10;;;17.10;45.80;;;;;;5066750;28;20047;-64
2022/01/19 06:40:15;;;;;;;5.55;4.22;;;17.10;45.80;;;;;;5067223;28;20037;-64
2022/01/19 06:42:42;;;;;;;5.38;3.60;;;17.10;45.80;;;;;;5060813;28;20066;-64
2022/01/19 06:45:09;;;;;;;5.90;3.90;;;17.10;45.80;;;;;;5064273;28;20366;-64
2022/01/19 06:47:36;;;;;;;5.22;3.67;;;17.10;45.80;;;;;;5063939;28;20021;-64
2022/01/19 06:50:03;;;;;;;5.80;3.83;;;17.10;45.80;;;;;;5072365;28;20067;-64
2022/01/19 06:52:28;;;;;;;5.68;3.83;;;17.10;45.80;;;;;;5072696;28;20043;-64
2022/01/19 06:54:54;;;;;;;5.93;4.07;;;17.00;45.70;;;;;;5053598;28;20036;-64
2022/01/19 06:57:19;;;;;;;6.00;4.22;;;17.00;45.80;;;;;;5072300;28;20036;-64
2022/01/19 06:59:45;;;;;;;6.25;3.75;;;17.00;45.70;;;;;;5065824;28;20350;-64
2022/01/19 07:02:11;;;;;;;6.47;3.97;;;17.00;45.70;;;;;;5048255;28;20491;-64
2022/01/19 07:04:38;;;;;;;5.32;3.63;;;17.00;45.70;;;;;;5062410;28;20033;-64
2022/01/19 07:07:04;;;;;;;8.38;4.43;;;17.00;45.70;;;;;;5071538;28;20024;-64
2022/01/19 07:09:29;;;;;;;6.40;4.00;;;17.00;45.70;;;;;;5069293;28;20044;-64
2022/01/19 07:11:55;;;;;;;6.00;3.85;;;17.00;45.60;;;;;;5072625;28;20033;-64
2022/01/19 07:14:21;;;;;;;6.25;4.00;;;17.00;45.60;;;;;;5069324;28;20082;-64
2022/01/19 07:16:47;;;;;;;5.35;4.15;;;17.00;45.60;;;;;;5072450;28;20039;-64
2022/01/19 07:19:13;;;;;;;5.50;4.05;;;17.00;45.70;;;;;;5054505;28;20067;-64
2022/01/19 07:21:40;;;;;;;5.43;3.95;;;17.00;45.60;;;;;;5040739;28;20065;-64
2022/01/19 07:24:06;;;;;;;5.78;4.18;;;17.00;45.70;;;;;;5057651;28;20111;-64
2022/01/19 07:26:31;;;;;;;13.35;8.45;;;17.00;45.70;;;;;;5071930;28;20440;-66
2022/01/19 07:28:57;;;;;;;13.35;8.05;;;16.90;43.60;;;;;;5073512;28;20076;-66
2022/01/19 07:31:22;;;;;;;14.00;8.63;;;16.40;43.60;;;;;;5070468;28;20426;-66
2022/01/19 07:33:48;;;;;;;12.90;8.63;;;15.80;44.60;;;;;;5070478;28;20067;-66
2022/01/19 07:36:15;;;;;;;13.90;8.30;;;15.40;44.60;;;;;;5071000;28;20411;-66
2022/01/19 07:38:41;;;;;;;11.85;7.47;;;15.00;45.30;;;;;;5053741;28;20032;-64
2022/01/19 07:41:07;;;;;;;12.75;7.07;;;14.80;45.80;;;;;;5071634;28;20029;-64
2022/01/19 07:43:33;;;;;;;14.25;7.43;;;14.70;46.00;;;;;;5065885;28;20100;-66
2022/01/19 07:45:58;;;;;;;18.02;9.25;;;14.70;46.20;;;;;;5073533;28;20033;-65
2022/01/19 07:48:24;;;;;;;13.02;8.02;;;14.60;46.10;;;;;;5073081;28;20017;-65
2022/01/19 07:50:50;;;;;;;13.77;8.10;;;14.50;46.30;;;;;;5059052;28;20037;-66
2022/01/19 07:53:15;;;;;;;14.18;8.15;;;14.30;46.90;;;;;;5053523;28;20502;-66
2022/01/19 07:55:42;;;;;;;13.02;8.05;;;14.10;47.50;;;;;;5072828;28;20070;-66
2022/01/19 07:58:09;;;;;;;15.38;8.93;;;14.00;47.70;;;;;;5072977;28;20047;-65
2022/01/19 08:00:38;;;;;;;17.30;9.60;;;13.80;47.70;;;;;;5057863;28;20048;-65
2022/01/19 08:03:04;;;;;;;16.73;9.75;;;13.60;48.60;;;;;;5052276;28;20029;-65
2022/01/19 08:05:30;;;;;;;14.88;8.35;;;13.30;47.50;;;;;;5051603;28;20025;-66
2022/01/19 08:07:56;;;;;;;14.32;9.13;;;13.10;48.70;;;;;;5052892;28;20368;-65
2022/01/19 08:10:21;;;;;;;13.55;7.80;;;13.10;49.10;;;;;;5071731;28;20426;-66
2022/01/19 08:12:50;;;;;;;17.42;8.65;;;13.20;49.50;;;;;;5072783;28;20464;-65
2022/01/19 08:15:16;;;;;;;13.60;7.88;;;13.20;49.40;;;;;;5054724;28;20028;-66
2022/01/19 08:17:42;;;;;;;10.95;6.22;;;13.00;48.90;;;;;;5071957;28;20075;-66
2022/01/19 08:20:08;;;;;;;8.73;5.15;;;13.20;50.80;;;;;;5074589;28;20134;-66
2022/01/19 08:22:34;;;;;;;8.38;4.95;;;13.70;51.10;;;;;;5075488;28;20024;-66
2022/01/19 08:24:59;;;;;;;7.05;4.15;;;14.20;50.60;;;;;;5075882;28;20055;-64
2022/01/19 08:27:25;;;;;;;11.32;6.15;;;14.60;50.00;;;;;;5076199;28;20074;-65
2022/01/19 08:29:50;;;;;;;9.00;5.00;;;15.00;49.10;;;;;;5076198;28;20040;-64
2022/01/19 08:32:16;;;;;;;8.02;4.45;;;15.30;48.30;;;;;;5075466;28;20064;-66
2022/01/19 08:34:42;;;;;;;6.97;4.32;;;15.60;47.80;;;;;;5076142;28;20021;-65
2022/01/19 08:37:14;;;;;;;9.10;4.32;;;15.90;47.30;;;;;;5075941;28;20052;-65
2022/01/19 08:39:41;;;;;;;6.13;4.00;;;16.20;46.90;;;;;;5072056;28;20028;-67
2022/01/19 08:42:07;;;;;;;7.15;4.25;;;16.40;46.40;;;;;;5071958;28;20025;-66
2022/01/19 08:44:33;;;;;;;5.68;3.55;;;16.60;45.90;;;;;;5066593;28;20031;-66
2022/01/19 08:46:58;;;;;;;6.32;3.60;;;16.90;45.40;;;;;;5058186;28;20562;-66
2022/01/19 08:49:24;;;;;;;6.03;3.65;;;17.10;45.00;;;;;;5068455;28;20464;-66
2022/01/19 08:51:50;;;;;;;5.40;3.60;;;17.30;44.50;;;;;;5058841;28;20029;-66
2022/01/19 08:54:15;;;;;;;5.47;3.30;;;17.40;44.10;;;;;;5068774;28;20067;-66
2022/01/19 08:56:41;;;;;;;6.53;3.53;;;17.60;43.80;;;;;;5074481;28;20068;-66
2022/01/19 08:59:07;;;;;;;5.00;3.10;;;17.80;43.50;;;;;;5056570;28;20491;-66
2022/01/19 09:01:32;;;;;;;4.78;3.30;;;17.90;43.10;;;;;;5074689;28;20063;-66
2022/01/19 09:03:58;;;;;;;5.80;3.55;;;18.00;42.70;;;;;;5066408;28;20044;-66
2022/01/19 09:06:24;;;;;;;5.22;3.50;;;18.20;42.50;;;;;;5056464;28;20041;-66
2022/01/19 09:08:50;;;;;;;5.25;3.15;;;18.30;42.20;;;;;;5075362;28;20464;-66
2022/01/19 09:11:16;;;;;;;4.40;3.00;;;18.40;42.00;;;;;;5065852;28;20083;-66
2022/01/19 09:13:44;;;;;;;5.93;3.42;;;18.50;41.70;;;;;;5059592;28;20029;-66
2022/01/19 09:16:09;;;;;;;4.53;3.10;;;18.60;41.40;;;;;;5070146;28;20027;-66
2022/01/19 09:18:35;;;;;;;4.32;3.03;;;18.80;41.20;;;;;;5072489;28;20037;-66
2022/01/19 09:21:01;;;;;;;4.65;3.10;;;18.90;40.90;;;;;;5073930;28;20017;-66
2022/01/19 09:23:27;;;;;;;7.05;3.15;;;19.00;40.70;;;;;;5061207;28;20131;-66
2022/01/19 09:25:53;;;;;;;3.78;2.88;;;19.10;40.50;;;;;;5061970;28;20108;-66
2022/01/19 09:28:18;;;;;;;4.22;3.30;;;19.20;40.30;;;;;;5071908;28;20021;-66
2022/01/19 09:30:45;;;;;;;4.38;2.70;;;19.30;40.20;;;;;;5072367;28;20425;-66
2022/01/19 09:33:19;;;;;;;4.15;3.10;;;19.40;40.00;;;;;;5062335;28;20028;-66
2022/01/19 09:38:21;;;;;;;3.65;3.03;;;19.50;39.60;;;;;;5072852;28;20045;-66
2022/01/19 09:40:47;;;;;;;4.50;3.00;;;19.60;39.50;;;;;;5074120;28;20078;-66
2022/01/19 09:43:14;;;;;;;5.00;3.38;;;19.60;40.20;;;;;;5062358;28;20530;-66
2022/01/19 09:45:40;;;;;;;3.55;2.78;;;19.70;39.10;;;;;;5055846;28;20033;-66
2022/01/19 09:48:07;;;;;;;3.90;3.08;;;19.80;39.00;;;;;;5062202;28;20032;-66
2022/01/19 09:50:33;;;;;;;4.40;2.67;;;19.80;38.80;;;;;;5073930;28;20498;-66
2022/01/19 09:53:03;;;;;;;3.47;2.55;;;19.90;38.70;;;;;;5074440;28;20032;-66
2022/01/19 09:55:28;;;;;;;3.65;2.80;;;20.00;38.50;;;;;;5073826;28;20025;-66
2022/01/19 09:57:54;;;;;;;3.58;2.80;;;20.00;38.50;;;;;;5053724;28;20047;-66
2022/01/19 10:00:20;;;;;;;3.22;2.40;;;20.10;38.30;;;;;;5061495;28;20056;-66
2022/01/19 10:03:19;;;;;;;3.80;2.63;;;20.20;38.20;;;;;;5065478;28;20028;-66
2022/01/19 10:06:05;;;;;;;3.72;2.90;;;20.30;37.90;;;;;;5066315;28;20024;-66
2022/01/19 10:08:41;;;;;;;4.22;3.20;;;20.30;37.60;;;;;;5054386;28;20013;-66
2022/01/19 10:11:21;;;;;;;4.43;2.80;;;20.30;37.80;;;;;;5064467;28;20033;-66
2022/01/19 10:17:04;;;;;;;3.95;2.40;;;20.40;37.70;;;;;;5054110;28;20071;-66
2022/01/19 10:19:42;;;;;;;3.70;2.50;;;20.40;37.90;;;;;;5054087;28;20033;-66
2022/01/19 10:22:09;;;;;;;3.53;2.72;;;20.50;37.90;;;;;;5053650;28;20021;-66
2022/01/19 10:24:53;;;;;;;3.85;2.45;;;20.50;37.90;;;;;;5058212;28;20017;-66
2022/01/19 10:27:26;;;;;;;3.10;2.30;;;20.60;37.60;;;;;;5073804;28;20096;-66
2022/01/19 10:30:03;;;;;;;3.45;2.10;;;20.60;37.60;;;;;;5071841;28;20041;-65
2022/01/19 10:32:33;;;;;;;4.50;2.67;;;20.70;37.60;;;;;;5053246;28;20017;-66
2022/01/19 10:35:29;;;;;;;2.85;2.20;;;20.80;37.70;;;;;;5053544;28;20035;-66
2022/01/19 10:38:25;;;;;;;2.70;2.22;;;20.80;37.40;;;;;;5053223;28;20048;-66
2022/01/19 10:41:02;;;;;;;3.17;2.50;;;20.90;37.30;;;;;;5035435;28;20384;-66
2022/01/19 10:43:43;;;;;;;3.20;2.25;;;20.90;37.30;;;;;;5072744;28;20029;-65
2022/01/19 10:46:28;;;;;;;2.47;2.05;;;21.00;37.20;;;;;;5072971;28;20045;-65
2022/01/19 10:49:04;;;;;;;3.15;2.63;;;21.00;37.00;;;;;;5073143;28;20025;-65
2022/01/19 10:51:36;;;;;;;3.40;2.58;;;21.10;37.20;;;;;;5073584;28;20403;-65
2022/01/19 10:54:22;;;;;;;3.22;2.20;;;21.10;37.20;;;;;;5060176;28;20068;-65
2022/01/19 10:56:54;;;;;;;3.17;2.30;;;21.20;36.80;;;;;;5062509;28;20016;-65
2022/01/19 10:59:26;;;;;;;3.03;2.30;;;21.20;37.20;;;;;;5072762;28;20037;-65
2022/01/19 11:01:55;;;;;;;2.50;2.00;;;21.20;37.20;;;;;;5073111;28;20024;-65
2022/01/19 11:04:30;;;;;;;3.78;2.20;;;21.20;37.30;;;;;;5072939;28;20017;-64
2022/01/19 11:07:15;;;;;;;3.72;2.30;;;21.20;37.20;;;;;;5073049;28;20055;-64
2022/01/19 11:09:46;;;;;;;2.38;2.10;;;21.20;37.10;;;;;;5072908;28;20451;-64
2022/01/19 11:12:19;;;;;;;3.10;2.28;;;21.20;37.10;;;;;;5073001;28;20029;-65
2022/01/19 11:14:45;;;;;;;3.00;2.47;;;21.20;37.10;;;;;;5072906;28;20476;-65
2022/01/19 11:17:11;;;;;;;3.40;2.70;;;21.20;37.20;;;;;;5073044;28;20028;-66
2022/01/19 11:19:39;;;;;;;2.92;2.38;;;21.20;37.20;;;;;;5073072;28;20035;-66
2022/01/19 11:22:05;;;;;;;3.65;2.38;;;21.20;37.10;;;;;;5073226;28;20056;-66
2022/01/19 11:24:45;;;;;;;3.22;2.40;;;21.20;37.10;;;;;;5073098;28;20056;-66
2022/01/19 11:27:12;;;;;;;3.08;2.30;;;21.20;37.00;;;;;;5073002;28;20017;-66
2022/01/19 11:29:39;;;;;;;4.28;2.97;;;21.20;37.00;;;;;;5072667;28;20479;-65
2022/01/19 11:32:18;;;;;;;4.35;3.20;;;21.20;37.10;;;;;;5067262;28;20037;-66
2022/01/19 11:34:47;;;;;;;4.25;3.40;;;21.20;36.90;;;;;;5067385;28;20043;-68
2022/01/19 11:37:14;;;;;;;4.18;2.60;;;21.20;37.00;;;;;;5072648;28;20024;-66
2022/01/19 11:40:18;;;;;;;5.07;3.20;;;21.10;37.10;;;;;;5072459;28;20033;-66
2022/01/19 11:42:44;;;;;;;5.03;2.60;;;21.10;36.60;;;;;;5025900;28;20204;-65
2022/01/19 11:45:40;;;;;;;3.50;2.70;;;21.10;37.20;;;;;;5058075;28;20037;-65
2022/01/19 11:48:18;;;;;;;3.78;2.80;;;21.20;37.20;;;;;;5058535;28;20036;-66
2022/01/19 11:50:45;;;;;;;3.38;2.60;;;21.10;37.50;;;;;;5067742;28;20016;-66
2022/01/19 11:53:12;;;;;;;2.72;2.40;;;21.10;37.60;;;;;;5053042;28;20029;-65
2022/01/19 11:56:00;;;;;;;3.28;2.63;;;21.10;37.80;;;;;;5067769;28;20082;-65
2022/01/19 11:58:26;;;;;;;3.25;2.33;;;21.10;37.90;;;;;;5077871;28;20473;-67
2022/01/19 12:00:55;;;;;;;3.53;2.88;;;21.10;38.00;;;;;;5068187;28;20519;-67
2022/01/19 12:03:31;;;;;;;3.92;2.67;;;21.10;38.20;;;;;;5076201;28;20028;-66
2022/01/19 12:05:57;;;;;;;3.78;2.50;;;21.10;38.30;;;;;;5076080;28;20494;-67
2022/01/19 12:08:32;;;;;;;4.32;2.80;;;21.10;38.30;;;;;;5076631;28;20037;-67
2022/01/19 12:11:09;;;;;;;3.42;2.50;;;21.10;38.30;;;;;;5076823;28;20024;-66
2022/01/19 12:18:53;;;;;;;3.30;2.60;;;21.10;38.40;;;;;;5056171;28;20507;-65
2022/01/19 12:21:21;;;;;;;3.38;2.58;;;21.10;38.50;;;;;;5064569;28;20376;-65
2022/01/19 12:23:49;;;;;;;4.32;3.00;;;21.10;38.50;;;;;;5068814;28;20025;-65
2022/01/19 12:26:15;;;;;;;4.13;2.83;;;21.10;38.60;;;;;;5074754;28;20508;-65
2022/01/19 12:28:52;;;;;;;4.20;3.08;;;21.10;38.60;;;;;;5075771;28;20035;-66
2022/01/19 12:31:24;;;;;;;3.83;2.70;;;21.10;38.70;;;;;;5076634;28;20031;-68
2022/01/19 12:34:11;;;;;;;3.80;2.80;;;21.10;38.80;;;;;;5076702;28;20459;-67
2022/01/19 12:36:54;;;;;;;5.50;2.90;;;21.00;38.60;;;;;;5060299;28;20380;-67
2022/01/19 12:39:26;;;;;;;4.40;2.78;;;21.00;38.70;;;;;;5069272;28;20083;-67
2022/01/19 12:42:04;;;;;;;4.03;3.00;;;21.00;38.80;;;;;;5069873;28;20453;-67
2022/01/19 12:44:40;;;;;;;4.03;3.03;;;21.00;38.80;;;;;;5057121;28;20092;-67
2022/01/19 12:47:28;;;;;;;4.72;2.92;;;21.00;38.80;;;;;;5056998;28;20461;-67
2022/01/19 12:49:57;;;;;;;4.28;2.85;;;21.00;38.70;;;;;;5057786;28;20028;-67
2022/01/19 12:52:28;;;;;;;4.38;2.80;;;20.90;38.80;;;;;;5074596;28;20025;-68
2022/01/19 12:54:55;;;;;;;5.00;2.80;;;21.00;38.80;;;;;;5063136;28;20024;-67
2022/01/19 12:57:21;;;;;;;3.70;2.78;;;21.00;38.90;;;;;;5057673;28;20387;-68
2022/01/19 12:59:50;;;;;;;3.95;2.75;;;21.00;38.80;;;;;;5075460;28;20028;-67
2022/01/19 13:02:20;;;;;;;4.32;3.22;;;21.00;38.80;;;;;;5063571;28;20025;-67
2022/01/19 13:04:47;;;;;;;3.67;2.97;;;21.00;38.80;;;;;;5074618;28;20017;-67
2022/01/19 13:07:22;;;;;;;3.65;2.85;;;21.00;39.70;;;;;;5051856;28;20103;-67
2022/01/19 13:12:55;;;;;;;4.30;2.92;;;21.00;38.60;;;;;;5056165;28;20033;-67
2022/01/19 13:15:40;;;;;;;4.07;3.20;;;20.90;38.80;;;;;;5048607;28;20420;-67
2022/01/19 13:18:06;;;;;;;5.65;3.45;;;20.90;38.80;;;;;;5076045;28;20075;-67
2022/01/19 13:20:31;;;;;;;5.22;3.22;;;20.90;38.90;;;;;;5058283;28;20137;-67
2022/01/19 13:22:58;;;;;;;5.32;3.55;;;20.90;38.90;;;;;;5074155;28;20032;-67
2022/01/19 13:25:25;;;;;;;4.15;3.03;;;20.90;38.80;;;;;;5074981;28;20024;-67
2022/01/19 13:27:56;;;;;;;4.13;2.92;;;20.90;38.80;;;;;;5072936;28;20032;-67
2022/01/19 13:30:26;;;;;;;4.72;3.45;;;20.90;38.80;;;;;;5075441;28;20056;-67
2022/01/19 13:32:53;;;;;;;5.30;3.78;;;20.90;38.80;;;;;;5075296;28;20103;-67
2022/01/19 13:35:20;;;;;;;4.65;3.38;;;21.00;38.80;;;;;;5055889;28;20028;-68
2022/01/19 13:37:55;;;;;;;4.10;3.42;;;21.00;38.80;;;;;;5054818;28;20123;-67
2022/01/19 13:40:33;;;;;;;4.35;3.25;;;21.00;38.70;;;;;;5062028;28;20032;-67
2022/01/19 13:43:05;;;;;;;4.13;3.22;;;20.90;38.60;;;;;;5056505;28;20029;-65
2022/01/19 13:45:48;;;;;;;4.63;3.58;;;20.90;38.80;;;;;;5072509;28;20024;-65
2022/01/19 13:48:31;;;;;;;6.05;3.97;;;20.90;38.80;;;;;;5069165;28;20028;-65
2022/01/19 13:51:05;;;;;;;4.68;3.80;;;20.90;38.80;;;;;;5054305;28;20028;-66
2022/01/19 13:53:40;;;;;;;4.70;3.78;;;20.90;39.00;;;;;;5054370;28;20025;-65
2022/01/19 13:56:10;;;;;;;5.38;3.53;;;20.90;38.80;;;;;;5066780;28;20432;-65
2022/01/19 13:58:46;;;;;;;5.38;4.15;;;20.90;38.80;;;;;;5052265;28;20024;-65
2022/01/19 14:01:19;;;;;;;6.40;4.68;;;20.90;38.90;;;;;;5073522;28;20468;-65
2022/01/19 14:03:58;;;;;;;7.15;5.78;;;20.90;38.90;;;;;;5073791;28;20082;-66
2022/01/19 14:06:26;;;;;;;6.55;5.20;;;20.90;38.60;;;;;;5073976;28;20031;-65
2022/01/19 14:09:17;;;;;;;6.63;5.28;;;20.90;39.00;;;;;;5074529;28;20025;-67
2022/01/19 14:11:48;;;;;;;5.97;4.70;;;20.90;38.90;;;;;;5073369;28;20095;-64
2022/01/19 14:14:35;;;;;;;6.75;4.88;;;20.80;39.00;;;;;;5056366;28;20029;-65
2022/01/19 14:17:06;;;;;;;7.65;5.18;;;20.80;38.80;;;;;;5072937;28;20021;-65
2022/01/19 14:19:33;;;;;;;8.45;5.28;;;20.80;39.00;;;;;;5073267;28;20500;-65
2022/01/19 14:22:20;;;;;;;7.30;4.82;;;20.80;39.10;;;;;;5073721;28;20035;-65
2022/01/19 14:25:00;;;;;;;5.70;4.57;;;20.80;39.00;;;;;;5073879;28;20422;-65
2022/01/19 14:27:26;;;;;;;6.03;4.72;;;20.80;39.30;;;;;;5073658;28;20020;-64
2022/01/19 14:30:10;;;;;;;7.82;4.70;;;20.80;39.60;;;;;;5073110;28;20064;-65
2022/01/19 14:32:36;;;;;;;5.57;4.32;;;20.80;39.70;;;;;;5073759;28;20025;-65
2022/01/19 14:35:18;;;;;;;6.28;4.97;;;20.70;39.80;;;;;;5073430;28;20104;-65
2022/01/19 14:38:19;;;;;;;5.97;4.60;;;20.80;40.00;;;;;;5073425;28;20037;-65